In Rescue
 
Open Full Screen Window  High Contrast Mode
Wind Gusting 00 knots
12
April 20, 2024 8:00 AM CDT
Weather Information
Wind Direction
  320 °
Wind Speed
  12 kt (14 mph)
Wind Gust
  00 kt (0 mph)
Altimeter
30.33 in
Visibility
10 SM
Temperature
-00° C
32° F
Dewpoint
-04° C
25° F
Humidity
74%
Sky Condition
Overcast @ 3,700 ft
Few @ 2,900 ft
VFR

METAR KTKC 201300Z AUTO 32012KT 10SM FEW029 OVC037 M00/M04 A3033 RMK AO2

FAA Disclaimer: The data displayed is for advisory purposes only and is not to be used for flight planning or operations.